sensor_id;sensor_type;location;lat;lon;timestamp;pressure;altitude;pressure_sealevel;temperature;humidity
49451;BME280;35336;48.400;10.886;2024-03-29T00:00:07;94903.22;;;4.12;78.22
49451;BME280;35336;48.400;10.886;2024-03-29T00:00:22;94904.44;;;4.17;78.13
49451;BME280;35336;48.400;10.886;2024-03-29T00:00:37;94903.84;;;4.15;78.47
49451;BME280;35336;48.400;10.886;2024-03-29T00:00:53;94904.44;;;4.17;78.63
49451;BME280;35336;48.400;10.886;2024-03-29T00:01:08;94905.44;;;4.16;78.65
49451;BME280;35336;48.400;10.886;2024-03-29T00:01:24;94906.47;;;4.15;78.35
49451;BME280;35336;48.400;10.886;2024-03-29T00:01:39;94893.66;;;4.11;78.17
49451;BME280;35336;48.400;10.886;2024-03-29T00:01:54;94903.00;;;4.14;78.03
49451;BME280;35336;48.400;10.886;2024-03-29T00:02:10;94889.53;;;4.02;77.89
49451;BME280;35336;48.400;10.886;2024-03-29T00:02:25;94903.22;;;4.12;77.72
49451;BME280;35336;48.400;10.886;2024-03-29T00:02:40;94869.19;;;3.96;77.90
49451;BME280;35336;48.400;10.886;2024-03-29T00:02:55;94890.03;;;4.12;77.82
49451;BME280;35336;48.400;10.886;2024-03-29T00:03:13;94893.66;;;4.11;77.62
49451;BME280;35336;48.400;10.886;2024-03-29T00:03:30;94886.75;;;4.10;77.83
49451;BME280;35336;48.400;10.886;2024-03-29T00:03:46;94893.66;;;4.11;77.54
49451;BME280;35336;48.400;10.886;2024-03-29T00:04:03;94888.59;;;4.10;77.63
49451;BME280;35336;48.400;10.886;2024-03-29T00:04:21;94888.38;;;4.11;77.28
49451;BME280;35336;48.400;10.886;2024-03-29T00:04:36;94898.94;;;4.11;77.49
49451;BME280;35336;48.400;10.886;2024-03-29T00:04:51;94889.59;;;4.09;77.33
49451;BME280;35336;48.400;10.886;2024-03-29T00:05:09;94892.03;;;4.10;77.10
49451;BME280;35336;48.400;10.886;2024-03-29T00:05:24;94890.41;;;4.09;76.82
49451;BME280;35336;48.400;10.886;2024-03-29T00:05:40;94886.13;;;4.08;77.02
49451;BME280;35336;48.400;10.886;2024-03-29T00:05:57;94858.78;;;3.88;77.03
49451;BME280;35336;48.400;10.886;2024-03-29T00:06:13;94887.16;;;4.07;76.83
49451;BME280;35336;48.400;10.886;2024-03-29T00:06:28;94872.19;;;3.93;77.03
49451;BME280;35336;48.400;10.886;2024-03-29T00:06:45;94885.25;;;4.01;76.90
49451;BME280;35336;48.400;10.886;2024-03-29T00:07:01;94882.63;;;4.01;77.33
49451;BME280;35336;48.400;10.886;2024-03-29T00:07:16;94891.59;;;4.07;77.40
49451;BME280;35336;48.400;10.886;2024-03-29T00:07:34;94897.88;;;4.06;77.26
49451;BME280;35336;48.400;10.886;2024-03-29T00:07:50;94885.88;;;4.03;77.51
49451;BME280;35336;48.400;10.886;2024-03-29T00:08:05;94882.63;;;4.01;77.38
49451;BME280;35336;48.400;10.886;2024-03-29T00:08:20;94884.69;;;4.06;77.37
49451;BME280;35336;48.400;10.886;2024-03-29T00:08:37;94884.69;;;4.06;77.51
49451;BME280;35336;48.400;10.886;2024-03-29T00:08:52;94883.44;;;4.02;77.90
49451;BME280;35336;48.400;10.886;2024-03-29T00:09:10;94894.44;;;4.05;77.71
49451;BME280;35336;48.400;10.886;2024-03-29T00:09:25;94890.16;;;4.04;77.82
49451;BME280;35336;48.400;10.886;2024-03-29T00:09:40;94884.88;;;4.04;77.80
49451;BME280;35336;48.400;10.886;2024-03-29T00:09:56;94892.00;;;4.04;77.93
49451;BME280;35336;48.400;10.886;2024-03-29T00:10:11;94885.09;;;4.03;78.01
49451;BME280;35336;48.400;10.886;2024-03-29T00:10:26;94853.47;;;3.81;77.56
49451;BME280;35336;48.400;10.886;2024-03-29T00:10:42;94891.16;;;4.03;77.81
49451;BME280;35336;48.400;10.886;2024-03-29T00:10:59;94891.16;;;4.03;77.47
49451;BME280;35336;48.400;10.886;2024-03-29T00:11:15;94890.53;;;4.01;77.35
49451;BME280;35336;48.400;10.886;2024-03-29T00:11:32;94883.81;;;3.98;77.27
49451;BME280;35336;48.400;10.886;2024-03-29T00:11:47;94871.41;;;3.92;77.60
49451;BME280;35336;48.400;10.886;2024-03-29T00:12:03;94886.28;;;4.00;77.33
49451;BME280;35336;48.400;10.886;2024-03-29T00:12:18;94883.66;;;4.00;77.44
49451;BME280;35336;48.400;10.886;2024-03-29T00:12:34;94888.72;;;4.02;77.67
49451;BME280;35336;48.400;10.886;2024-03-29T00:12:49;94890.53;;;4.01;77.59
49451;BME280;35336;48.400;10.886;2024-03-29T00:13:04;94887.09;;;4.01;77.26
49451;BME280;35336;48.400;10.886;2024-03-29T00:13:19;94885.25;;;4.01;77.31
49451;BME280;35336;48.400;10.886;2024-03-29T00:13:35;94888.94;;;4.00;76.81
49451;BME280;35336;48.400;10.886;2024-03-29T00:13:50;94886.28;;;4.00;76.64
49451;BME280;35336;48.400;10.886;2024-03-29T00:14:05;94886.28;;;4.00;76.85
49451;BME280;35336;48.400;10.886;2024-03-29T00:14:20;94872.47;;;3.98;76.91
49451;BME280;35336;48.400;10.886;2024-03-29T00:14:36;94873.25;;;3.92;76.99
49451;BME280;35336;48.400;10.886;2024-03-29T00:14:51;94886.66;;;3.97;77.44
49451;BME280;35336;48.400;10.886;2024-03-29T00:15:07;94879.13;;;3.94;77.31
49451;BME280;35336;48.400;10.886;2024-03-29T00:15:22;94875.69;;;3.93;76.93
49451;BME280;35336;48.400;10.886;2024-03-29T00:15:37;94866.91;;;3.86;76.79
49451;BME280;35336;48.400;10.886;2024-03-29T00:15:52;94876.47;;;3.94;76.71
49451;BME280;35336;48.400;10.886;2024-03-29T00:16:08;94874.59;;;3.88;76.06
49451;BME280;35336;48.400;10.886;2024-03-29T00:16:24;94881.75;;;3.94;76.31
49451;BME280;35336;48.400;10.886;2024-03-29T00:16:39;94874.47;;;3.96;76.15
49451;BME280;35336;48.400;10.886;2024-03-29T00:16:54;94875.47;;;3.95;76.24
49451;BME280;35336;48.400;10.886;2024-03-29T00:17:09;94878.94;;;3.95;76.30
49451;BME280;35336;48.400;10.886;2024-03-29T00:17:27;94879.75;;;3.96;76.25
49451;BME280;35336;48.400;10.886;2024-03-29T00:17:42;94872.41;;;3.91;75.98
49451;BME280;35336;48.400;10.886;2024-03-29T00:17:58;94879.75;;;3.96;75.58
49451;BME280;35336;48.400;10.886;2024-03-29T00:18:13;94881.38;;;3.97;75.86
49451;BME280;35336;48.400;10.886;2024-03-29T00:18:29;94878.75;;;3.97;75.56
49451;BME280;35336;48.400;10.886;2024-03-29T00:18:46;94876.09;;;3.97;75.73
49451;BME280;35336;48.400;10.886;2024-03-29T00:19:06;94882.19;;;3.97;75.30
49451;BME280;35336;48.400;10.886;2024-03-29T00:19:22;94881.38;;;3.97;75.47
49451;BME280;35336;48.400;10.886;2024-03-29T00:19:37;94874.47;;;3.96;75.45
49451;BME280;35336;48.400;10.886;2024-03-29T00:19:52;94882.00;;;3.99;75.68
49451;BME280;35336;48.400;10.886;2024-03-29T00:20:11;94851.66;;;3.81;75.72
49451;BME280;35336;48.400;10.886;2024-03-29T00:20:26;94876.75;;;3.99;76.23
49451;BME280;35336;48.400;10.886;2024-03-29T00:20:41;94878.75;;;3.97;75.78
49451;BME280;35336;48.400;10.886;2024-03-29T00:20:59;94870.84;;;3.97;76.13
49451;BME280;35336;48.400;10.886;2024-03-29T00:21:17;94883.66;;;4.00;75.97
49451;BME280;35336;48.400;10.886;2024-03-29T00:21:32;94875.53;;;4.02;76.52
49451;BME280;35336;48.400;10.886;2024-03-29T00:21:48;94872.28;;;4.00;76.26
49451;BME280;35336;48.400;10.886;2024-03-29T00:22:03;94872.47;;;3.98;75.83
49451;BME280;35336;48.400;10.886;2024-03-29T00:22:18;94877.34;;;4.01;76.14
49451;BME280;35336;48.400;10.886;2024-03-29T00:22:34;94875.53;;;4.02;76.02
49451;BME280;35336;48.400;10.886;2024-03-29T00:22:49;94877.19;;;4.03;75.90
49451;BME280;35336;48.400;10.886;2024-03-29T00:23:05;94864.34;;;4.00;76.00
49451;BME280;35336;48.400;10.886;2024-03-29T00:23:20;94871.91;;;4.03;75.82
49451;BME280;35336;48.400;10.886;2024-03-29T00:23:35;94872.69;;;4.03;76.15
49451;BME280;35336;48.400;10.886;2024-03-29T00:23:51;94865.78;;;4.02;76.25
49451;BME280;35336;48.400;10.886;2024-03-29T00:24:06;94865.19;;;4.00;76.08
49451;BME280;35336;48.400;10.886;2024-03-29T00:24:24;94863.34;;;4.01;76.16
49451;BME280;35336;48.400;10.886;2024-03-29T00:24:39;94863.34;;;4.01;76.24
49451;BME280;35336;48.400;10.886;2024-03-29T00:24:54;94865.34;;;3.98;76.21
49451;BME280;35336;48.400;10.886;2024-03-29T00:25:10;94859.91;;;4.00;76.31
49451;BME280;35336;48.400;10.886;2024-03-29T00:25:25;94857.66;;;3.97;76.31
49451;BME280;35336;48.400;10.886;2024-03-29T00:25:40;94864.34;;;4.00;76.47
49451;BME280;35336;48.400;10.886;2024-03-29T00:25:58;94868.81;;;3.99;76.74
49451;BME280;35336;48.400;10.886;2024-03-29T00:26:15;94868.00;;;3.98;76.75
49451;BME280;35336;48.400;10.886;2024-03-29T00:26:33;94860.91;;;3.99;77.01
49451;BME280;35336;48.400;10.886;2024-03-29T00:26:48;94859.47;;;3.96;76.81
49451;BME280;35336;48.400;10.886;2024-03-29T00:27:03;94863.94;;;3.96;76.49
49451;BME280;35336;48.400;10.886;2024-03-29T00:27:19;94862.28;;;3.95;76.05
49451;BME280;35336;48.400;10.886;2024-03-29T00:27:34;94869.19;;;3.96;76.17
49451;BME280;35336;48.400;10.886;2024-03-29T00:27:49;94863.28;;;3.94;76.30
49451;BME280;35336;48.400;10.886;2024-03-29T00:28:05;94861.91;;;3.98;76.15
49451;BME280;35336;48.400;10.886;2024-03-29T00:28:20;94867.81;;;4.00;76.36
49451;BME280;35336;48.400;10.886;2024-03-29T00:28:35;94868.81;;;3.99;76.11
49451;BME280;35336;48.400;10.886;2024-03-29T00:28:51;94864.94;;;3.95;76.52
49451;BME280;35336;48.400;10.886;2024-03-29T00:29:06;94872.47;;;3.98;76.67
49451;BME280;35336;48.400;10.886;2024-03-29T00:29:21;94861.84;;;3.91;76.62
49451;BME280;35336;48.400;10.886;2024-03-29T00:29:37;94867.75;;;3.93;76.45
49451;BME280;35336;48.400;10.886;2024-03-29T00:29:52;94862.25;;;3.88;76.36
49451;BME280;35336;48.400;10.886;2024-03-29T00:30:08;94869.56;;;3.93;76.06
49451;BME280;35336;48.400;10.886;2024-03-29T00:30:23;94848.00;;;3.83;75.97
49451;BME280;35336;48.400;10.886;2024-03-29T00:30:38;94862.00;;;3.83;76.37
49451;BME280;35336;48.400;10.886;2024-03-29T00:30:54;94879.56;;;3.97;76.25
49451;BME280;35336;48.400;10.886;2024-03-29T00:31:09;94877.94;;;3.96;76.37
49451;BME280;35336;48.400;10.886;2024-03-29T00:31:24;94880.75;;;3.95;76.61
49451;BME280;35336;48.400;10.886;2024-03-29T00:31:40;94884.38;;;3.94;76.24
49451;BME280;35336;48.400;10.886;2024-03-29T00:31:55;94882.59;;;3.94;75.83
49451;BME280;35336;48.400;10.886;2024-03-29T00:32:13;94882.16;;;3.91;75.84
49451;BME280;35336;48.400;10.886;2024-03-29T00:32:29;94882.94;;;3.91;76.06
49451;BME280;35336;48.400;10.886;2024-03-29T00:32:44;94885.34;;;3.86;76.07
49451;BME280;35336;48.400;10.886;2024-03-29T00:32:59;94888.22;;;3.91;76.20
49451;BME280;35336;48.400;10.886;2024-03-29T00:33:17;94889.88;;;3.92;76.34
49451;BME280;35336;48.400;10.886;2024-03-29T00:33:32;94883.78;;;3.92;76.17
49451;BME280;35336;48.400;10.886;2024-03-29T00:33:47;94885.38;;;3.93;75.79
49451;BME280;35336;48.400;10.886;2024-03-29T00:34:02;94888.66;;;3.95;76.24
49451;BME280;35336;48.400;10.886;2024-03-29T00:34:18;94881.16;;;3.92;76.42
49451;BME280;35336;48.400;10.886;2024-03-29T00:34:33;94873.16;;;3.85;76.31
49451;BME280;35336;48.400;10.886;2024-03-29T00:34:52;94887.84;;;3.94;76.26
49451;BME280;35336;48.400;10.886;2024-03-29T00:35:08;94889.88;;;3.92;75.96
49451;BME280;35336;48.400;10.886;2024-03-29T00:35:23;94887.84;;;3.94;75.97
49451;BME280;35336;48.400;10.886;2024-03-29T00:35:38;94892.31;;;3.94;76.24
49451;BME280;35336;48.400;10.886;2024-03-29T00:35:53;94889.50;;;3.95;75.89
49451;BME280;35336;48.400;10.886;2024-03-29T00:36:09;94876.44;;;3.87;76.17
49451;BME280;35336;48.400;10.886;2024-03-29T00:36:24;94885.03;;;3.96;76.25
49451;BME280;35336;48.400;10.886;2024-03-29T00:36:39;94878.25;;;3.87;76.39
49451;BME280;35336;48.400;10.886;2024-03-29T00:36:55;94885.84;;;3.96;76.21
49451;BME280;35336;48.400;10.886;2024-03-29T00:37:10;94886.66;;;3.97;76.27
49451;BME280;35336;48.400;10.886;2024-03-29T00:37:28;94886.03;;;3.95;76.44
49451;BME280;35336;48.400;10.886;2024-03-29T00:37:48;94884.78;;;3.91;76.54
49451;BME280;35336;48.400;10.886;2024-03-29T00:38:03;94889.66;;;3.94;76.17
49451;BME280;35336;48.400;10.886;2024-03-29T00:38:19;94887.03;;;3.94;76.29
49451;BME280;35336;48.400;10.886;2024-03-29T00:38:34;94872.81;;;3.88;76.17
49451;BME280;35336;48.400;10.886;2024-03-29T00:38:50;94887.03;;;3.94;76.11
49451;BME280;35336;48.400;10.886;2024-03-29T00:39:05;94889.50;;;3.95;76.54
49451;BME280;35336;48.400;10.886;2024-03-29T00:39:20;94888.50;;;3.96;76.53
49451;BME280;35336;48.400;10.886;2024-03-29T00:39:35;94884.38;;;3.94;76.48
49451;BME280;35336;48.400;10.886;2024-03-29T00:39:51;94885.38;;;3.93;76.60
49451;BME280;35336;48.400;10.886;2024-03-29T00:40:06;94889.50;;;3.95;76.68
49451;BME280;35336;48.400;10.886;2024-03-29T00:40:22;94884.38;;;3.94;76.96
49451;BME280;35336;48.400;10.886;2024-03-29T00:40:37;94879.13;;;3.94;77.17
49451;BME280;35336;48.400;10.886;2024-03-29T00:40:52;94871.59;;;3.91;76.76
49451;BME280;35336;48.400;10.886;2024-03-29T00:41:07;94881.38;;;3.97;76.82
49451;BME280;35336;48.400;10.886;2024-03-29T00:41:23;94856.69;;;3.76;76.85
49451;BME280;35336;48.400;10.886;2024-03-29T00:41:38;94880.38;;;3.98;76.77
49451;BME280;35336;48.400;10.886;2024-03-29T00:41:53;94872.03;;;3.94;76.77
49451;BME280;35336;48.400;10.886;2024-03-29T00:42:09;94871.19;;;3.94;76.64
49451;BME280;35336;48.400;10.886;2024-03-29T00:42:26;94869.56;;;3.93;76.74
49451;BME280;35336;48.400;10.886;2024-03-29T00:42:41;94870.03;;;3.96;76.59
49451;BME280;35336;48.400;10.886;2024-03-29T00:42:56;94869.19;;;3.96;76.65
49451;BME280;35336;48.400;10.886;2024-03-29T00:43:12;94866.75;;;3.94;76.74
49451;BME280;35336;48.400;10.886;2024-03-29T00:43:27;94872.03;;;3.94;76.87
49451;BME280;35336;48.400;10.886;2024-03-29T00:43:42;94862.44;;;3.87;76.92
49451;BME280;35336;48.400;10.886;2024-03-29T00:43:58;94856.16;;;3.88;77.33
49451;BME280;35336;48.400;10.886;2024-03-29T00:44:13;94865.94;;;3.94;77.33
49451;BME280;35336;48.400;10.886;2024-03-29T00:44:28;94877.31;;;3.94;77.40
49451;BME280;35336;48.400;10.886;2024-03-29T00:44:43;94864.28;;;3.93;77.26
49451;BME280;35336;48.400;10.886;2024-03-29T00:44:59;94861.06;;;3.91;77.27
49451;BME280;35336;48.400;10.886;2024-03-29T00:45:14;94859.03;;;3.93;77.36
49451;BME280;35336;48.400;10.886;2024-03-29T00:45:31;94869.19;;;3.96;77.46
49451;BME280;35336;48.400;10.886;2024-03-29T00:45:47;94872.84;;;3.95;77.63
49451;BME280;35336;48.400;10.886;2024-03-29T00:46:02;94858.59;;;3.89;77.43
49451;BME280;35336;48.400;10.886;2024-03-29T00:46:17;94866.75;;;3.94;77.54
49451;BME280;35336;48.400;10.886;2024-03-29T00:46:35;94867.56;;;3.95;77.78
49451;BME280;35336;48.400;10.886;2024-03-29T00:46:50;94872.84;;;3.95;77.89
49451;BME280;35336;48.400;10.886;2024-03-29T00:47:06;94861.50;;;3.94;77.89
49451;BME280;35336;48.400;10.886;2024-03-29T00:47:21;94846.00;;;3.85;77.75
49451;BME280;35336;48.400;10.886;2024-03-29T00:47:36;94862.28;;;3.95;77.70
49451;BME280;35336;48.400;10.886;2024-03-29T00:47:52;94866.38;;;3.97;77.58
49451;BME280;35336;48.400;10.886;2024-03-29T00:48:07;94863.13;;;3.95;77.57
49451;BME280;35336;48.400;10.886;2024-03-29T00:48:22;94859.47;;;3.96;77.58
49451;BME280;35336;48.400;10.886;2024-03-29T00:48:40;94856.84;;;3.96;77.15
49451;BME280;35336;48.400;10.886;2024-03-29T00:48:57;94855.81;;;3.97;77.11
49451;BME280;35336;48.400;10.886;2024-03-29T00:49:15;94863.94;;;3.96;77.16
49451;BME280;35336;48.400;10.886;2024-03-29T00:49:31;94857.00;;;3.95;77.00
49451;BME280;35336;48.400;10.886;2024-03-29T00:49:46;94853.38;;;3.96;77.37
49451;BME280;35336;48.400;10.886;2024-03-29T00:50:01;94855.22;;;3.95;77.06
49451;BME280;35336;48.400;10.886;2024-03-29T00:50:16;94848.09;;;3.96;77.35
49451;BME280;35336;48.400;10.886;2024-03-29T00:50:34;94854.22;;;3.96;77.24
49451;BME280;35336;48.400;10.886;2024-03-29T00:50:50;94853.38;;;3.96;77.15
49451;BME280;35336;48.400;10.886;2024-03-29T00:51:05;94850.75;;;3.96;76.69
49451;BME280;35336;48.400;10.886;2024-03-29T00:51:20;94857.84;;;3.95;76.66
49451;BME280;35336;48.400;10.886;2024-03-29T00:51:38;94855.81;;;3.97;76.41
49451;BME280;35336;48.400;10.886;2024-03-29T00:51:53;94833.00;;;3.83;76.58
49451;BME280;35336;48.400;10.886;2024-03-29T00:52:09;94850.94;;;3.94;76.24
49451;BME280;35336;48.400;10.886;2024-03-29T00:52:24;94857.44;;;3.98;76.65
49451;BME280;35336;48.400;10.886;2024-03-29T00:52:39;94851.38;;;3.98;76.39
49451;BME280;35336;48.400;10.886;2024-03-29T00:52:54;94845.47;;;3.96;76.31
49451;BME280;35336;48.400;10.886;2024-03-29T00:53:10;94845.66;;;3.94;76.63
49451;BME280;35336;48.400;10.886;2024-03-29T00:53:25;94847.09;;;3.97;75.91
49451;BME280;35336;48.400;10.886;2024-03-29T00:53:40;94854.22;;;3.96;76.10
49451;BME280;35336;48.400;10.886;2024-03-29T00:53:56;94851.38;;;3.98;75.97
49451;BME280;35336;48.400;10.886;2024-03-29T00:54:11;94847.72;;;3.99;76.38
49451;BME280;35336;48.400;10.886;2024-03-29T00:54:26;94839.75;;;3.92;75.87
49451;BME280;35336;48.400;10.886;2024-03-29T00:54:42;94844.25;;;3.98;75.77
49451;BME280;35336;48.400;10.886;2024-03-29T00:54:57;94847.72;;;3.99;75.77
49451;BME280;35336;48.400;10.886;2024-03-29T00:55:12;94836.75;;;3.95;75.51
49451;BME280;35336;48.400;10.886;2024-03-29T00:55:27;94838.19;;;3.98;75.49
49451;BME280;35336;48.400;10.886;2024-03-29T00:55:43;94838.81;;;4.00;75.54
49451;BME280;35336;48.400;10.886;2024-03-29T00:55:59;94836.34;;;3.98;75.35
49451;BME280;35336;48.400;10.886;2024-03-29T00:56:15;94836.19;;;4.00;75.67
49451;BME280;35336;48.400;10.886;2024-03-29T00:56:30;94800.91;;;3.79;75.57
49451;BME280;35336;48.400;10.886;2024-03-29T00:56:48;94826.19;;;3.95;75.85
49451;BME280;35336;48.400;10.886;2024-03-29T00:57:04;94828.25;;;4.00;75.64
49451;BME280;35336;48.400;10.886;2024-03-29T00:57:21;94834.34;;;4.01;75.64
49451;BME280;35336;48.400;10.886;2024-03-29T00:57:36;94824.56;;;3.94;75.66
49451;BME280;35336;48.400;10.886;2024-03-29T00:57:54;94831.91;;;3.99;75.88
49451;BME280;35336;48.400;10.886;2024-03-29T00:58:09;94837.97;;;4.00;76.13
49451;BME280;35336;48.400;10.886;2024-03-29T00:58:25;94834.34;;;4.01;76.01
49451;BME280;35336;48.400;10.886;2024-03-29T00:58:40;94836.19;;;4.00;76.22
49451;BME280;35336;48.400;10.886;2024-03-29T00:58:55;94833.53;;;4.00;76.34
49451;BME280;35336;48.400;10.886;2024-03-29T00:59:10;94834.53;;;3.99;76.21
49451;BME280;35336;48.400;10.886;2024-03-29T00:59:26;94814.38;;;3.85;76.61
49451;BME280;35336;48.400;10.886;2024-03-29T00:59:41;94837.97;;;4.00;76.52
49451;BME280;35336;48.400;10.886;2024-03-29T00:59:56;94833.91;;;3.97;76.81
49451;BME280;35336;48.400;10.886;2024-03-29T01:00:12;94823.13;;;3.92;76.97
49451;BME280;35336;48.400;10.886;2024-03-29T01:00:27;94836.19;;;4.00;76.77
49451;BME280;35336;48.400;10.886;2024-03-29T01:00:43;94836.19;;;4.00;76.87
49451;BME280;35336;48.400;10.886;2024-03-29T01:00:58;94819.66;;;3.91;76.78
49451;BME280;35336;48.400;10.886;2024-03-29T01:01:13;94831.47;;;3.95;76.73
49451;BME280;35336;48.400;10.886;2024-03-29T01:01:31;94835.53;;;3.98;77.04
49451;BME280;35336;48.400;10.886;2024-03-29T01:01:46;94833.91;;;3.97;77.24
49451;BME280;35336;48.400;10.886;2024-03-29T01:02:04;94829.41;;;3.91;77.02
49451;BME280;35336;48.400;10.886;2024-03-29T01:02:20;94832.66;;;3.93;77.29
49451;BME280;35336;48.400;10.886;2024-03-29T01:02:35;94832.47;;;3.94;77.08
49451;BME280;35336;48.400;10.886;2024-03-29T01:02:52;94834.13;;;3.95;77.25
49451;BME280;35336;48.400;10.886;2024-03-29T01:03:08;94830.00;;;3.93;77.18
49451;BME280;35336;48.400;10.886;2024-03-29T01:03:23;94832.66;;;3.93;77.30
49451;BME280;35336;48.400;10.886;2024-03-29T01:03:38;94835.91;;;3.95;77.43
49451;BME280;35336;48.400;10.886;2024-03-29T01:03:53;94829.00;;;3.94;77.49
49451;BME280;35336;48.400;10.886;2024-03-29T01:04:09;94836.91;;;3.94;77.57
49451;BME280;35336;48.400;10.886;2024-03-29T01:04:24;94830.66;;;3.95;77.32
49451;BME280;35336;48.400;10.886;2024-03-29T01:04:39;94829.00;;;3.94;77.43
49451;BME280;35336;48.400;10.886;2024-03-29T01:04:55;94829.00;;;3.94;77.37
49451;BME280;35336;48.400;10.886;2024-03-29T01:05:10;94837.91;;;3.93;77.16
49451;BME280;35336;48.400;10.886;2024-03-29T01:05:25;94827.38;;;3.93;76.88
49451;BME280;35336;48.400;10.886;2024-03-29T01:05:40;94827.38;;;3.93;76.84
49451;BME280;35336;48.400;10.886;2024-03-29T01:05:56;94831.03;;;3.92;76.83
49451;BME280;35336;48.400;10.886;2024-03-29T01:06:11;94832.66;;;3.93;76.87
49451;BME280;35336;48.400;10.886;2024-03-29T01:06:26;94819.44;;;3.86;76.94
49451;BME280;35336;48.400;10.886;2024-03-29T01:06:42;94832.03;;;3.91;77.37
49451;BME280;35336;48.400;10.886;2024-03-29T01:06:57;94827.56;;;3.91;77.47
49451;BME280;35336;48.400;10.886;2024-03-29T01:07:12;94832.03;;;3.91;77.52
49451;BME280;35336;48.400;10.886;2024-03-29T01:07:28;94822.09;;;3.93;77.35
49451;BME280;35336;48.400;10.886;2024-03-29T01:07:43;94831.03;;;3.92;77.35
49451;BME280;35336;48.400;10.886;2024-03-29T01:07:58;94832.84;;;3.91;77.42
49451;BME280;35336;48.400;10.886;2024-03-29T01:08:13;94827.38;;;3.93;77.42
49451;BME280;35336;48.400;10.886;2024-03-29T01:08:29;94826.56;;;3.92;77.55
49451;BME280;35336;48.400;10.886;2024-03-29T01:08:44;94825.13;;;3.90;77.38
49451;BME280;35336;48.400;10.886;2024-03-29T01:09:00;94825.78;;;3.92;77.67
49451;BME280;35336;48.400;10.886;2024-03-29T01:09:15;94825.78;;;3.92;78.00
49451;BME280;35336;48.400;10.886;2024-03-29T01:09:31;94820.50;;;3.92;78.07
49451;BME280;35336;48.400;10.886;2024-03-29T01:09:46;94820.44;;;3.85;78.46
49451;BME280;35336;48.400;10.886;2024-03-29T01:10:01;94824.13;;;3.91;78.15
49451;BME280;35336;48.400;10.886;2024-03-29T01:10:17;94826.78;;;3.91;78.35
49451;BME280;35336;48.400;10.886;2024-03-29T01:10:32;94815.78;;;3.87;78.32
49451;BME280;35336;48.400;10.886;2024-03-29T01:10:47;94823.72;;;3.87;78.40
49451;BME280;35336;48.400;10.886;2024-03-29T01:11:03;94820.25;;;3.87;78.99
49451;BME280;35336;48.400;10.886;2024-03-29T01:11:18;94814.16;;;3.86;78.87
49451;BME280;35336;48.400;10.886;2024-03-29T01:11:33;94814.38;;;3.85;78.97
49451;BME280;35336;48.400;10.886;2024-03-29T01:11:50;94822.06;;;3.86;78.90
49451;BME280;35336;48.400;10.886;2024-03-29T01:12:06;94820.44;;;3.85;78.92
49451;BME280;35336;48.400;10.886;2024-03-29T01:12:21;94816.16;;;3.84;78.68
49451;BME280;35336;48.400;10.886;2024-03-29T01:12:36;94819.63;;;3.85;78.92
49451;BME280;35336;48.400;10.886;2024-03-29T01:12:52;94803.81;;;3.85;78.42
49451;BME280;35336;48.400;10.886;2024-03-29T01:13:07;94816.38;;;3.83;78.43
49451;BME280;35336;48.400;10.886;2024-03-29T01:13:22;94814.38;;;3.85;78.46
49451;BME280;35336;48.400;10.886;2024-03-29T01:13:38;94802.19;;;3.84;78.47
49451;BME280;35336;48.400;10.886;2024-03-29T01:13:53;94803.81;;;3.85;78.63
49451;BME280;35336;48.400;10.886;2024-03-29T01:14:08;94801.34;;;3.83;78.52
49451;BME280;35336;48.400;10.886;2024-03-29T01:14:23;94804.81;;;3.84;78.30
49451;BME280;35336;48.400;10.886;2024-03-29T01:14:39;94785.88;;;3.73;78.60
49451;BME280;35336;48.400;10.886;2024-03-29T01:14:54;94796.91;;;3.84;78.76
49451;BME280;35336;48.400;10.886;2024-03-29T01:15:09;94792.44;;;3.84;78.45
49451;BME280;35336;48.400;10.886;2024-03-29T01:15:25;94794.06;;;3.85;78.68
49451;BME280;35336;48.400;10.886;2024-03-29T01:15:40;94787.16;;;3.84;78.66
49451;BME280;35336;48.400;10.886;2024-03-29T01:15:55;94781.47;;;3.80;78.64
49451;BME280;35336;48.400;10.886;2024-03-29T01:16:11;94785.34;;;3.85;78.43
49451;BME280;35336;48.400;10.886;2024-03-29T01:16:26;94784.53;;;3.84;78.54
49451;BME280;35336;48.400;10.886;2024-03-29T01:16:41;94774.56;;;3.79;78.74
49451;BME280;35336;48.400;10.886;2024-03-29T01:16:56;94774.13;;;3.76;78.53
49451;BME280;35336;48.400;10.886;2024-03-29T01:17:12;94772.13;;;3.78;79.02
49451;BME280;35336;48.400;10.886;2024-03-29T01:17:28;94764.34;;;3.70;79.12
49451;BME280;35336;48.400;10.886;2024-03-29T01:17:43;94780.47;;;3.81;79.07
49451;BME280;35336;48.400;10.886;2024-03-29T01:17:59;94779.47;;;3.83;79.42
49451;BME280;35336;48.400;10.886;2024-03-29T01:18:14;94781.09;;;3.84;79.92
49451;BME280;35336;48.400;10.886;2024-03-29T01:18:32;94776.81;;;3.83;79.90
49451;BME280;35336;48.400;10.886;2024-03-29T01:18:50;94758.66;;;3.66;80.77
49451;BME280;35336;48.400;10.886;2024-03-29T01:19:05;94774.56;;;3.79;81.49
49451;BME280;35336;48.400;10.886;2024-03-29T01:19:20;94770.50;;;3.77;81.65
49451;BME280;35336;48.400;10.886;2024-03-29T01:19:36;94766.78;;;3.71;82.09
49451;BME280;35336;48.400;10.886;2024-03-29T01:19:51;94770.06;;;3.73;82.34
49451;BME280;35336;48.400;10.886;2024-03-29T01:20:06;94769.06;;;3.74;82.26
49451;BME280;35336;48.400;10.886;2024-03-29T01:20:22;94771.69;;;3.74;82.60
49451;BME280;35336;48.400;10.886;2024-03-29T01:20:38;94771.88;;;3.73;82.42
49451;BME280;35336;48.400;10.886;2024-03-29T01:20:53;94761.91;;;3.68;82.52
49451;BME280;35336;48.400;10.886;2024-03-29T01:21:08;94759.47;;;3.67;82.28
49451;BME280;35336;48.400;10.886;2024-03-29T01:21:25;94770.47;;;3.70;82.53
49451;BME280;35336;48.400;10.886;2024-03-29T01:21:40;94762.72;;;3.69;82.59
49451;BME280;35336;48.400;10.886;2024-03-29T01:21:56;94736.25;;;3.48;82.44
49451;BME280;35336;48.400;10.886;2024-03-29T01:22:11;94766.56;;;3.66;82.19
49451;BME280;35336;48.400;10.886;2024-03-29T01:22:28;94761.50;;;3.64;82.18
49451;BME280;35336;48.400;10.886;2024-03-29T01:22:44;94765.75;;;3.65;82.17
49451;BME280;35336;48.400;10.886;2024-03-29T01:22:59;94756.16;;;3.58;81.91